sensor_id;sensor_type;location;lat;lon;timestamp;pressure;altitude;pressure_sealevel;temperature;humidity
49825;BME280;35714;55.708;37.478;2022-11-10T00:01:48;99639.06;;;10.02;69.37
49825;BME280;35714;55.708;37.478;2022-11-10T00:04:32;99640.09;;;10.01;69.47
49825;BME280;35714;55.708;37.478;2022-11-10T00:07:17;99649.53;;;9.99;69.54
49825;BME280;35714;55.708;37.478;2022-11-10T00:10:04;99640.06;;;10.08;69.11
49825;BME280;35714;55.708;37.478;2022-11-10T00:12:49;99638.47;;;10.00;69.16
49825;BME280;35714;55.708;37.478;2022-11-10T00:15:37;99626.13;;;10.04;68.94
49825;BME280;35714;55.708;37.478;2022-11-10T00:18:40;99637.63;;;10.00;69.15
49825;BME280;35714;55.708;37.478;2022-11-10T00:21:24;99637.34;;;9.89;69.47
49825;BME280;35714;55.708;37.478;2022-11-10T00:24:08;99638.94;;;9.97;69.26
49825;BME280;35714;55.708;37.478;2022-11-10T00:26:53;99642.31;;;9.92;69.54
49825;BME280;35714;55.708;37.478;2022-11-10T00:29:37;99635.69;;;9.88;69.61
49825;BME280;35714;55.708;37.478;2022-11-10T00:32:22;99640.88;;;9.90;69.59
49825;BME280;35714;55.708;37.478;2022-11-10T00:35:06;99643.13;;;9.93;69.38
49825;BME280;35714;55.708;37.478;2022-11-10T00:37:50;99633.38;;;9.92;69.67
49825;BME280;35714;55.708;37.478;2022-11-10T00:40:35;99642.97;;;9.88;69.69
49825;BME280;35714;55.708;37.478;2022-11-10T00:43:19;99632.75;;;9.90;69.54
49825;BME280;35714;55.708;37.478;2022-11-10T00:46:03;99638.16;;;9.90;70.20
49825;BME280;35714;55.708;37.478;2022-11-10T00:48:48;99625.69;;;9.89;69.92
49825;BME280;35714;55.708;37.478;2022-11-10T00:51:32;99623.56;;;9.91;69.73
49825;BME280;35714;55.708;37.478;2022-11-10T00:54:16;99625.25;;;9.92;69.71
49825;BME280;35714;55.708;37.478;2022-11-10T00:57:00;99616.03;;;9.93;69.39
49825;BME280;35714;55.708;37.478;2022-11-10T00:59:45;99618.16;;;9.91;69.55
49825;BME280;35714;55.708;37.478;2022-11-10T01:02:30;99611.97;;;9.84;69.71
49825;BME280;35714;55.708;37.478;2022-11-10T01:05:14;99611.97;;;9.84;69.66
49825;BME280;35714;55.708;37.478;2022-11-10T01:07:58;99607.31;;;9.91;69.28
49825;BME280;35714;55.708;37.478;2022-11-10T01:10:42;99607.31;;;9.91;69.27
49825;BME280;35714;55.708;37.478;2022-11-10T01:13:26;99596.56;;;9.84;69.36
49825;BME280;35714;55.708;37.478;2022-11-10T01:16:16;99602.00;;;9.84;69.56
49825;BME280;35714;55.708;37.478;2022-11-10T01:19:02;99596.56;;;9.84;69.47
49825;BME280;35714;55.708;37.478;2022-11-10T01:21:49;99611.97;;;9.84;69.38
49825;BME280;35714;55.708;37.478;2022-11-10T01:24:34;99604.06;;;9.82;69.40
49825;BME280;35714;55.708;37.478;2022-11-10T01:27:18;99605.16;;;9.81;69.40
49825;BME280;35714;55.708;37.478;2022-11-10T01:30:03;99604.06;;;9.82;69.31
49825;BME280;35714;55.708;37.478;2022-11-10T01:32:48;99602.03;;;9.78;69.57
49825;BME280;35714;55.708;37.478;2022-11-10T01:35:32;99600.78;;;9.80;69.50
49825;BME280;35714;55.708;37.478;2022-11-10T01:38:17;99596.34;;;9.86;69.41
49825;BME280;35714;55.708;37.478;2022-11-10T01:41:03;99598.66;;;9.82;69.35
49825;BME280;35714;55.708;37.478;2022-11-10T01:43:48;99595.34;;;9.80;69.46
49825;BME280;35714;55.708;37.478;2022-11-10T01:46:32;99603.25;;;9.82;69.49
49825;BME280;35714;55.708;37.478;2022-11-10T01:49:21;99591.84;;;9.80;69.75
49825;BME280;35714;55.708;37.478;2022-11-10T01:52:10;99594.91;;;9.83;69.55
49825;BME280;35714;55.708;37.478;2022-11-10T01:54:57;99594.09;;;9.83;69.33
49825;BME280;35714;55.708;37.478;2022-11-10T01:57:41;99599.50;;;9.83;69.38
49825;BME280;35714;55.708;37.478;2022-11-10T02:00:25;99594.09;;;9.83;69.33
49825;BME280;35714;55.708;37.478;2022-11-10T02:06:19;99597.84;;;9.82;69.27
49825;BME280;35714;55.708;37.478;2022-11-10T02:09:04;99603.25;;;9.82;69.28
49825;BME280;35714;55.708;37.478;2022-11-10T02:11:50;99598.06;;;9.80;69.34
49825;BME280;35714;55.708;37.478;2022-11-10T02:14:36;99617.84;;;9.81;69.10
49825;BME280;35714;55.708;37.478;2022-11-10T02:17:20;99604.91;;;9.83;68.84
49825;BME280;35714;55.708;37.478;2022-11-10T02:20:09;99602.66;;;9.80;68.98
49825;BME280;35714;55.708;37.478;2022-11-10T02:22:53;99590.03;;;9.73;69.31
49825;BME280;35714;55.708;37.478;2022-11-10T02:25:38;99604.59;;;9.72;69.35
49825;BME280;35714;55.708;37.478;2022-11-10T02:28:23;99605.41;;;9.73;69.37
49825;BME280;35714;55.708;37.478;2022-11-10T02:31:07;99601.31;;;9.70;69.45
49825;BME280;35714;55.708;37.478;2022-11-10T02:33:52;99599.19;;;9.72;69.44
49825;BME280;35714;55.708;37.478;2022-11-10T02:36:36;99593.19;;;9.70;69.29
49825;BME280;35714;55.708;37.478;2022-11-10T02:39:21;99594.66;;;9.66;69.41
49825;BME280;35714;55.708;37.478;2022-11-10T02:42:05;99594.66;;;9.66;69.42
49825;BME280;35714;55.708;37.478;2022-11-10T02:44:56;99600.53;;;9.63;69.62
49825;BME280;35714;55.708;37.478;2022-11-10T02:47:40;99602.19;;;9.64;69.41
49825;BME280;35714;55.708;37.478;2022-11-10T02:50:24;99605.13;;;9.63;69.49
49825;BME280;35714;55.708;37.478;2022-11-10T02:53:09;99622.19;;;9.63;69.61
49825;BME280;35714;55.708;37.478;2022-11-10T02:55:53;99611.06;;;9.53;69.77
49825;BME280;35714;55.708;37.478;2022-11-10T02:58:37;99616.47;;;9.53;69.82
49825;BME280;35714;55.708;37.478;2022-11-10T03:01:22;99606.09;;;9.50;69.86
49825;BME280;35714;55.708;37.478;2022-11-10T03:04:06;99608.38;;;9.53;69.72
49825;BME280;35714;55.708;37.478;2022-11-10T03:06:51;99610.00;;;9.54;69.68
49825;BME280;35714;55.708;37.478;2022-11-10T03:09:35;99602.31;;;9.51;69.71
49825;BME280;35714;55.708;37.478;2022-11-10T03:12:19;99609.25;;;9.47;69.87
49825;BME280;35714;55.708;37.478;2022-11-10T03:15:03;99608.41;;;9.46;69.96
49825;BME280;35714;55.708;37.478;2022-11-10T03:17:48;99617.81;;;9.44;69.91
49825;BME280;35714;55.708;37.478;2022-11-10T03:20:32;99607.59;;;9.46;69.77
49825;BME280;35714;55.708;37.478;2022-11-10T03:23:18;99609.91;;;9.42;70.13
49825;BME280;35714;55.708;37.478;2022-11-10T03:26:04;99608.63;;;9.45;69.91
49825;BME280;35714;55.708;37.478;2022-11-10T03:28:48;99603.84;;;9.47;69.75
49825;BME280;35714;55.708;37.478;2022-11-10T03:31:33;99594.88;;;9.46;69.66
49825;BME280;35714;55.708;37.478;2022-11-10T03:34:17;99596.00;;;9.57;69.22
49825;BME280;35714;55.708;37.478;2022-11-10T03:37:01;99602.75;;;9.48;69.67
49825;BME280;35714;55.708;37.478;2022-11-10T03:39:45;99587.81;;;9.45;69.79
49825;BME280;35714;55.708;37.478;2022-11-10T03:42:30;99592.88;;;9.42;69.45
49825;BME280;35714;55.708;37.478;2022-11-10T03:45:14;99589.09;;;9.43;69.72
49825;BME280;35714;55.708;37.478;2022-11-10T03:47:59;99595.28;;;9.50;69.29
49825;BME280;35714;55.708;37.478;2022-11-10T03:50:43;99585.19;;;9.38;69.50
49825;BME280;35714;55.708;37.478;2022-11-10T03:53:27;99571.22;;;9.42;69.39
49825;BME280;35714;55.708;37.478;2022-11-10T03:56:11;99578.13;;;9.37;69.45
49825;BME280;35714;55.708;37.478;2022-11-10T03:58:56;99578.19;;;9.31;69.69
49825;BME280;35714;55.708;37.478;2022-11-10T04:01:40;99589.97;;;9.36;69.34
49825;BME280;35714;55.708;37.478;2022-11-10T04:04:24;99576.88;;;9.33;69.74
49825;BME280;35714;55.708;37.478;2022-11-10T04:07:28;99575.63;;;9.36;69.62
49825;BME280;35714;55.708;37.478;2022-11-10T04:10:34;99583.06;;;9.41;69.45
49825;BME280;35714;55.708;37.478;2022-11-10T04:13:18;99577.50;;;9.35;69.50
49825;BME280;35714;55.708;37.478;2022-11-10T04:16:21;99587.56;;;9.28;69.24
49825;BME280;35714;55.708;37.478;2022-11-10T04:19:05;99573.16;;;9.34;69.37
49825;BME280;35714;55.708;37.478;2022-11-10T04:21:50;99575.84;;;9.34;69.17
49825;BME280;35714;55.708;37.478;2022-11-10T04:24:34;99568.03;;;9.26;69.44
49825;BME280;35714;55.708;37.478;2022-11-10T04:27:19;99580.47;;;9.27;69.07
49825;BME280;35714;55.708;37.478;2022-11-10T04:30:03;99571.78;;;9.25;69.30
49825;BME280;35714;55.708;37.478;2022-11-10T04:32:47;99572.22;;;9.22;69.52
49825;BME280;35714;55.708;37.478;2022-11-10T04:35:31;99586.97;;;9.26;69.30
49825;BME280;35714;55.708;37.478;2022-11-10T04:38:16;99598.38;;;9.28;69.31
49825;BME280;35714;55.708;37.478;2022-11-10T04:41:00;99597.59;;;9.21;69.57
49825;BME280;35714;55.708;37.478;2022-11-10T04:43:44;99592.63;;;9.18;69.47
49825;BME280;35714;55.708;37.478;2022-11-10T04:46:31;99606.78;;;9.20;69.56
49825;BME280;35714;55.708;37.478;2022-11-10T04:49:31;99613.41;;;9.24;69.20
49825;BME280;35714;55.708;37.478;2022-11-10T04:52:33;99609.66;;;9.25;69.08
49825;BME280;35714;55.708;37.478;2022-11-10T04:55:38;99609.72;;;9.18;68.93
49825;BME280;35714;55.708;37.478;2022-11-10T04:58:31;99599.78;;;9.12;68.94
49825;BME280;35714;55.708;37.478;2022-11-10T05:01:18;99606.28;;;9.05;69.16
49825;BME280;35714;55.708;37.478;2022-11-10T05:04:02;99605.28;;;8.99;69.17
49825;BME280;35714;55.708;37.478;2022-11-10T05:06:51;99591.97;;;8.97;68.80
49825;BME280;35714;55.708;37.478;2022-11-10T05:09:37;99592.97;;;9.03;68.62
49825;BME280;35714;55.708;37.478;2022-11-10T05:12:21;99624.88;;;8.94;68.74
49825;BME280;35714;55.708;37.478;2022-11-10T05:15:32;99606.56;;;8.96;68.80
49825;BME280;35714;55.708;37.478;2022-11-10T05:22:31;99608.31;;;8.84;68.89
49825;BME280;35714;55.708;37.478;2022-11-10T05:25:15;99610.41;;;8.82;69.15
49825;BME280;35714;55.708;37.478;2022-11-10T05:28:00;99613.13;;;8.82;68.84
49825;BME280;35714;55.708;37.478;2022-11-10T05:30:44;99606.50;;;8.78;68.88
49825;BME280;35714;55.708;37.478;2022-11-10T05:33:28;99609.63;;;8.75;68.77
49825;BME280;35714;55.708;37.478;2022-11-10T05:36:12;99607.34;;;8.72;68.72
49825;BME280;35714;55.708;37.478;2022-11-10T05:38:56;99612.75;;;8.72;68.57
49825;BME280;35714;55.708;37.478;2022-11-10T05:41:40;99611.31;;;8.69;68.39
49825;BME280;35714;55.708;37.478;2022-11-10T05:44:24;99599.69;;;8.69;68.20
49825;BME280;35714;55.708;37.478;2022-11-10T05:47:09;99602.81;;;8.65;68.62
49825;BME280;35714;55.708;37.478;2022-11-10T05:49:53;99600.91;;;8.73;68.17
49825;BME280;35714;55.708;37.478;2022-11-10T05:52:45;99601.72;;;8.73;68.17
49825;BME280;35714;55.708;37.478;2022-11-10T05:55:30;99599.25;;;8.72;68.24
49825;BME280;35714;55.708;37.478;2022-11-10T05:58:14;99593.84;;;8.72;67.92
49825;BME280;35714;55.708;37.478;2022-11-10T06:00:58;99594.28;;;8.69;68.24
49825;BME280;35714;55.708;37.478;2022-11-10T06:03:42;99601.34;;;8.70;68.04
49825;BME280;35714;55.708;37.478;2022-11-10T06:06:27;99595.94;;;8.70;67.92
49825;BME280;35714;55.708;37.478;2022-11-10T06:09:11;99594.31;;;8.62;68.22
49825;BME280;35714;55.708;37.478;2022-11-10T06:11:55;99604.72;;;8.65;68.26
49825;BME280;35714;55.708;37.478;2022-11-10T06:14:40;99588.53;;;8.58;67.95
49825;BME280;35714;55.708;37.478;2022-11-10T06:17:24;99601.41;;;8.56;67.92
49825;BME280;35714;55.708;37.478;2022-11-10T06:20:09;99599.78;;;8.55;68.06
49825;BME280;35714;55.708;37.478;2022-11-10T06:23:09;99611.16;;;8.64;67.41
49825;BME280;35714;55.708;37.478;2022-11-10T06:25:54;99612.66;;;8.53;67.56
49825;BME280;35714;55.708;37.478;2022-11-10T06:28:38;99608.31;;;8.52;67.57
49825;BME280;35714;55.708;37.478;2022-11-10T06:31:22;99617.69;;;8.49;67.90
49825;BME280;35714;55.708;37.478;2022-11-10T06:34:06;99621.03;;;8.45;67.94
49825;BME280;35714;55.708;37.478;2022-11-10T06:36:51;99604.38;;;8.48;67.77
49825;BME280;35714;55.708;37.478;2022-11-10T06:39:35;99603.97;;;8.51;67.80
49825;BME280;35714;55.708;37.478;2022-11-10T06:42:20;99606.22;;;8.54;67.69
49825;BME280;35714;55.708;37.478;2022-11-10T06:45:04;99602.28;;;8.57;67.65
49825;BME280;35714;55.708;37.478;2022-11-10T06:47:58;99603.69;;;8.59;67.41
49825;BME280;35714;55.708;37.478;2022-11-10T06:50:42;99606.81;;;8.56;67.56
49825;BME280;35714;55.708;37.478;2022-11-10T06:53:26;99613.69;;;8.59;67.51
49825;BME280;35714;55.708;37.478;2022-11-10T06:56:10;99622.34;;;8.67;67.10
49825;BME280;35714;55.708;37.478;2022-11-10T06:58:55;99612.38;;;8.68;66.74
49825;BME280;35714;55.708;37.478;2022-11-10T07:01:39;99618.44;;;8.63;67.10
49825;BME280;35714;55.708;37.478;2022-11-10T07:04:23;99608.81;;;8.67;66.84
49825;BME280;35714;55.708;37.478;2022-11-10T07:07:08;99611.31;;;8.69;66.66
49825;BME280;35714;55.708;37.478;2022-11-10T07:09:53;99614.44;;;8.73;66.90
49825;BME280;35714;55.708;37.478;2022-11-10T07:12:38;99617.09;;;8.79;66.52
49825;BME280;35714;55.708;37.478;2022-11-10T07:15:21;99622.44;;;8.86;66.24
49825;BME280;35714;55.708;37.478;2022-11-10T07:18:06;99619.13;;;8.84;66.05
49825;BME280;35714;55.708;37.478;2022-11-10T07:20:50;99623.50;;;8.85;66.39
49825;BME280;35714;55.708;37.478;2022-11-10T07:23:34;99634.03;;;8.93;66.42
49825;BME280;35714;55.708;37.478;2022-11-10T07:26:18;99636.41;;;9.08;65.71
49825;BME280;35714;55.708;37.478;2022-11-10T07:29:03;99626.88;;;9.06;65.44
49825;BME280;35714;55.708;37.478;2022-11-10T07:31:47;99620.75;;;9.17;65.25
49825;BME280;35714;55.708;37.478;2022-11-10T07:34:31;99625.44;;;9.28;65.02
49825;BME280;35714;55.708;37.478;2022-11-10T07:37:15;99616.72;;;9.26;65.03
49825;BME280;35714;55.708;37.478;2022-11-10T07:40:00;99618.38;;;9.27;64.65
49825;BME280;35714;55.708;37.478;2022-11-10T07:42:44;99620.41;;;9.32;64.53
49825;BME280;35714;55.708;37.478;2022-11-10T07:45:29;99628.88;;;9.17;64.66
49825;BME280;35714;55.708;37.478;2022-11-10T07:48:13;99633.94;;;9.07;65.17
49825;BME280;35714;55.708;37.478;2022-11-10T07:50:58;99621.06;;;9.02;65.55
49825;BME280;35714;55.708;37.478;2022-11-10T07:53:42;99636.31;;;8.96;65.69
49825;BME280;35714;55.708;37.478;2022-11-10T07:56:27;99642.31;;;8.98;65.69
49825;BME280;35714;55.708;37.478;2022-11-10T07:59:11;99624.63;;;9.02;65.64
49825;BME280;35714;55.708;37.478;2022-11-10T08:01:55;99625.66;;;9.01;65.67
49825;BME280;35714;55.708;37.478;2022-11-10T08:04:39;99630.28;;;8.94;66.01
49825;BME280;35714;55.708;37.478;2022-11-10T08:07:24;99635.31;;;8.91;66.14
49825;BME280;35714;55.708;37.478;2022-11-10T08:10:08;99632.38;;;8.92;66.04
49825;BME280;35714;55.708;37.478;2022-11-10T08:12:54;99617.81;;;8.93;66.32
49825;BME280;35714;55.708;37.478;2022-11-10T08:15:39;99617.38;;;8.96;66.28
49825;BME280;35714;55.708;37.478;2022-11-10T08:18:24;99619.22;;;9.02;66.12
49825;BME280;35714;55.708;37.478;2022-11-10T08:21:08;99612.28;;;9.07;66.06
49825;BME280;35714;55.708;37.478;2022-11-10T08:23:52;99621.63;;;9.11;66.17
49825;BME280;35714;55.708;37.478;2022-11-10T08:26:37;99621.34;;;9.19;65.79
49825;BME280;35714;55.708;37.478;2022-11-10T08:29:21;99620.31;;;9.20;65.89
49825;BME280;35714;55.708;37.478;2022-11-10T08:32:05;99622.13;;;9.26;65.72
49825;BME280;35714;55.708;37.478;2022-11-10T08:34:49;99618.56;;;9.32;65.74
49825;BME280;35714;55.708;37.478;2022-11-10T08:37:34;99614.97;;;9.38;65.41
49825;BME280;35714;55.708;37.478;2022-11-10T08:40:18;99626.53;;;9.46;65.16
49825;BME280;35714;55.708;37.478;2022-11-10T08:43:06;99621.91;;;9.53;64.59
49825;BME280;35714;55.708;37.478;2022-11-10T08:45:53;99636.03;;;9.55;64.31
49825;BME280;35714;55.708;37.478;2022-11-10T08:48:39;99625.72;;;9.45;64.84
49825;BME280;35714;55.708;37.478;2022-11-10T08:51:23;99619.44;;;9.45;64.96
49825;BME280;35714;55.708;37.478;2022-11-10T08:54:07;99614.97;;;9.57;64.51
49825;BME280;35714;55.708;37.478;2022-11-10T08:56:52;99617.63;;;9.64;64.55
49825;BME280;35714;55.708;37.478;2022-11-10T08:59:37;99619.50;;;9.82;63.93
49825;BME280;35714;55.708;37.478;2022-11-10T09:02:21;99620.78;;;9.79;63.80
49825;BME280;35714;55.708;37.478;2022-11-10T09:05:06;99624.16;;;9.74;63.96
49825;BME280;35714;55.708;37.478;2022-11-10T09:07:50;99620.19;;;9.77;63.90
49825;BME280;35714;55.708;37.478;2022-11-10T09:10:37;99624.03;;;9.88;63.72
49825;BME280;35714;55.708;37.478;2022-11-10T09:13:22;99622.81;;;9.84;63.36
49825;BME280;35714;55.708;37.478;2022-11-10T09:16:06;99623.34;;;9.74;63.86
49825;BME280;35714;55.708;37.478;2022-11-10T09:18:51;99623.03;;;9.64;64.03
49825;BME280;35714;55.708;37.478;2022-11-10T09:21:35;99615.16;;;9.62;64.30
49825;BME280;35714;55.708;37.478;2022-11-10T09:24:19;99611.38;;;9.63;64.63
49825;BME280;35714;55.708;37.478;2022-11-10T09:27:04;99618.81;;;9.68;64.38
49825;BME280;35714;55.708;37.478;2022-11-10T09:29:48;99618.59;;;9.69;64.60
49825;BME280;35714;55.708;37.478;2022-11-10T09:32:32;99616.22;;;9.80;64.37
49825;BME280;35714;55.708;37.478;2022-11-10T09:35:17;99616.50;;;9.90;63.93
49825;BME280;35714;55.708;37.478;2022-11-10T09:38:01;99618.16;;;9.91;63.75
49825;BME280;35714;55.708;37.478;2022-11-10T09:41:06;99612.75;;;9.91;63.94
49825;BME280;35714;55.708;37.478;2022-11-10T09:46:49;99597.38;;;9.85;63.87
49825;BME280;35714;55.708;37.478;2022-11-10T09:49:43;99599.97;;;9.80;63.93
49825;BME280;35714;55.708;37.478;2022-11-10T09:52:32;99603.25;;;9.82;64.10
49825;BME280;35714;55.708;37.478;2022-11-10T09:55:41;99595.69;;;9.90;63.84
49825;BME280;35714;55.708;37.478;2022-11-10T09:58:32;99597.38;;;9.85;63.82
49825;BME280;35714;55.708;37.478;2022-11-10T10:01:46;99605.81;;;9.95;63.87
49825;BME280;35714;55.708;37.478;2022-11-10T10:04:49;99600.47;;;10.07;63.62
49825;BME280;35714;55.708;37.478;2022-11-10T10:08:00;99611.22;;;10.14;62.98
49825;BME280;35714;55.708;37.478;2022-11-10T10:20:03;99591.97;;;10.22;63.22
49825;BME280;35714;55.708;37.478;2022-11-10T10:23:10;99604.56;;;10.28;63.16
49825;BME280;35714;55.708;37.478;2022-11-10T10:25:57;99595.84;;;10.26;62.59
49825;BME280;35714;55.708;37.478;2022-11-10T10:28:46;99599.38;;;10.26;63.02
49825;BME280;35714;55.708;37.478;2022-11-10T10:31:38;99580.16;;;10.28;62.91
49825;BME280;35714;55.708;37.478;2022-11-10T10:34:27;99598.09;;;10.29;63.04
49825;BME280;35714;55.708;37.478;2022-11-10T10:37:56;99609.25;;;10.39;62.81
49825;BME280;35714;55.708;37.478;2022-11-10T10:40:33;99604.56;;;10.46;62.87
49825;BME280;35714;55.708;37.478;2022-11-10T10:43:18;99599.88;;;10.54;62.29
49825;BME280;35714;55.708;37.478;2022-11-10T10:46:07;99612.75;;;10.58;62.47
49825;BME280;35714;55.708;37.478;2022-11-10T10:49:21;99616.28;;;10.59;62.26
49825;BME280;35714;55.708;37.478;2022-11-10T10:52:14;99606.03;;;10.61;62.34
49825;BME280;35714;55.708;37.478;2022-11-10T10:55:02;99606.41;;;10.64;62.07
49825;BME280;35714;55.708;37.478;2022-11-10T10:57:50;99608.16;;;10.59;61.97
49825;BME280;35714;55.708;37.478;2022-11-10T11:00:42;99606.13;;;10.54;62.44
49825;BME280;35714;55.708;37.478;2022-11-10T11:03:39;99594.94;;;10.51;62.48
49825;BME280;35714;55.708;37.478;2022-11-10T11:06:28;99598.78;;;10.43;62.81
49825;BME280;35714;55.708;37.478;2022-11-10T11:09:23;99599.13;;;10.46;62.97
49825;BME280;35714;55.708;37.478;2022-11-10T11:15:22;99604.34;;;10.48;62.68
49825;BME280;35714;55.708;37.478;2022-11-10T11:18:14;99601.38;;;10.50;62.69
49825;BME280;35714;55.708;37.478;2022-11-10T11:21:11;99608.25;;;10.52;62.67
49825;BME280;35714;55.708;37.478;2022-11-10T11:30:23;99603.38;;;10.42;63.24
49825;BME280;35714;55.708;37.478;2022-11-10T11:33:18;99600.69;;;10.42;63.28
49825;BME280;35714;55.708;37.478;2022-11-10T11:36:16;99598.31;;;10.46;63.18
49825;BME280;35714;55.708;37.478;2022-11-10T11:39:05;99614.22;;;10.42;63.00
49825;BME280;35714;55.708;37.478;2022-11-10T11:45:26;99608.81;;;10.42;63.25
49825;BME280;35714;55.708;37.478;2022-11-10T11:48:32;99609.84;;;10.41;63.53
49825;BME280;35714;55.708;37.478;2022-11-10T11:51:38;99604.88;;;10.38;63.58
49825;BME280;35714;55.708;37.478;2022-11-10T11:54:31;99601.72;;;10.41;63.33
49825;BME280;35714;55.708;37.478;2022-11-10T11:57:42;99602.94;;;10.45;63.59
49825;BME280;35714;55.708;37.478;2022-11-10T12:00:37;99602.31;;;10.43;63.11
49825;BME280;35714;55.708;37.478;2022-11-10T12:03:39;99608.41;;;10.39;63.42
49825;BME280;35714;55.708;37.478;2022-11-10T12:10:01;99605.34;;;10.35;63.56
49825;BME280;35714;55.708;37.478;2022-11-10T12:18:54;99596.16;;;10.36;63.54
49825;BME280;35714;55.708;37.478;2022-11-10T12:21:48;99587.66;;;10.33;63.63
49825;BME280;35714;55.708;37.478;2022-11-10T12:24:50;99602.03;;;10.33;63.64
49825;BME280;35714;55.708;37.478;2022-11-10T12:27:46;99623.03;;;10.38;63.61
49825;BME280;35714;55.708;37.478;2022-11-10T12:30:33;99635.00;;;10.30;63.79
49825;BME280;35714;55.708;37.478;2022-11-10T12:36:19;99644.75;;;10.31;64.00
49825;BME280;35714;55.708;37.478;2022-11-10T12:39:14;99638.97;;;10.27;63.84
49825;BME280;35714;55.708;37.478;2022-11-10T12:42:01;99644.13;;;10.17;64.23
49825;BME280;35714;55.708;37.478;2022-11-10T12:44:56;99637.03;;;10.16;64.22
49825;BME280;35714;55.708;37.478;2022-11-10T12:47:44;99642.53;;;10.09;64.71
49825;BME280;35714;55.708;37.478;2022-11-10T12:50:49;99639.22;;;10.07;64.68
49825;BME280;35714;55.708;37.478;2022-11-10T12:53:38;99644.25;;;10.04;64.55
49825;BME280;35714;55.708;37.478;2022-11-10T12:56:28;99641.19;;;10.00;64.76
49825;BME280;35714;55.708;37.478;2022-11-10T13:02:46;99643.56;;;9.90;65.00
49825;BME280;35714;55.708;37.478;2022-11-10T13:05:37;99640.28;;;9.88;65.32
49825;BME280;35714;55.708;37.478;2022-11-10T13:08:33;99645.09;;;9.86;65.16
49825;BME280;35714;55.708;37.478;2022-11-10T13:11:35;99651.56;;;9.85;65.24
49825;BME280;35714;55.708;37.478;2022-11-10T13:14:24;99643.28;;;9.80;65.38
49825;BME280;35714;55.708;37.478;2022-11-10T13:17:50;99645.38;;;9.78;65.52
49825;BME280;35714;55.708;37.478;2022-11-10T13:32:33;99663.34;;;9.72;65.97
49825;BME280;35714;55.708;37.478;2022-11-10T13:41:17;99663.59;;;9.70;65.67
49825;BME280;35714;55.708;37.478;2022-11-10T13:50:07;99669.44;;;9.67;66.17
49825;BME280;35714;55.708;37.478;2022-11-10T13:56:26;99668.84;;;9.65;65.93
49825;BME280;35714;55.708;37.478;2022-11-10T13:59:20;99669.28;;;9.62;66.25
49825;BME280;35714;55.708;37.478;2022-11-10T14:08:16;99679.41;;;9.48;66.76
49825;BME280;35714;55.708;37.478;2022-11-10T14:11:05;99673.78;;;9.50;66.91
49825;BME280;35714;55.708;37.478;2022-11-10T14:14:02;99668.50;;;9.55;66.93
49825;BME280;35714;55.708;37.478;2022-11-10T14:16:47;99681.25;;;9.48;67.08
49825;BME280;35714;55.708;37.478;2022-11-10T14:19:40;99663.16;;;9.48;67.16
49825;BME280;35714;55.708;37.478;2022-11-10T14:22:33;99656.00;;;9.54;66.96
49825;BME280;35714;55.708;37.478;2022-11-10T14:28:33;99641.00;;;9.58;67.15
49825;BME280;35714;55.708;37.478;2022-11-10T14:31:24;99633.47;;;9.60;67.03
49825;BME280;35714;55.708;37.478;2022-11-10T14:34:14;99644.28;;;9.60;67.05
49825;BME280;35714;55.708;37.478;2022-11-10T14:37:00;99650.78;;;9.59;67.09
49825;BME280;35714;55.708;37.478;2022-11-10T14:39:46;99666.34;;;9.64;67.13
49825;BME280;35714;55.708;37.478;2022-11-10T14:42:32;99679.69;;;9.65;66.93
49825;BME280;35714;55.708;37.478;2022-11-10T14:45:17;99700.41;;;9.71;66.65
49825;BME280;35714;55.708;37.478;2022-11-10T14:48:16;99675.91;;;9.66;66.73
49825;BME280;35714;55.708;37.478;2022-11-10T14:51:03;99675.06;;;9.66;67.01
49825;BME280;35714;55.708;37.478;2022-11-10T14:53:55;99695.91;;;9.65;66.96
49825;BME280;35714;55.708;37.478;2022-11-10T14:56:41;99678.81;;;9.65;66.77
49825;BME280;35714;55.708;37.478;2022-11-10T14:59:25;99676.78;;;9.60;66.91
49825;BME280;35714;55.708;37.478;2022-11-10T15:02:14;99683.28;;;9.59;66.96
49825;BME280;35714;55.708;37.478;2022-11-10T15:05:00;99682.19;;;9.60;66.96
49825;BME280;35714;55.708;37.478;2022-11-10T15:07:46;99693.03;;;9.60;67.21
49825;BME280;35714;55.708;37.478;2022-11-10T15:16:27;99682.19;;;9.60;67.12
49825;BME280;35714;55.708;37.478;2022-11-10T15:19:51;99687.31;;;9.50;67.38
49825;BME280;35714;55.708;37.478;2022-11-10T15:22:39;99677.66;;;9.54;67.11
49825;BME280;35714;55.708;37.478;2022-11-10T15:25:31;99692.28;;;9.53;67.27
49825;BME280;35714;55.708;37.478;2022-11-10T15:31:11;99685.03;;;9.47;67.37
49825;BME280;35714;55.708;37.478;2022-11-10T15:34:02;99685.63;;;9.49;67.38
49825;BME280;35714;55.708;37.478;2022-11-10T15:36:46;99691.50;;;9.46;67.28
49825;BME280;35714;55.708;37.478;2022-11-10T15:39:31;99681.47;;;9.46;67.38
49825;BME280;35714;55.708;37.478;2022-11-10T15:42:21;99679.19;;;9.50;67.28
49825;BME280;35714;55.708;37.478;2022-11-10T15:45:05;99680.66;;;9.46;67.29
49825;BME280;35714;55.708;37.478;2022-11-10T15:47:50;99685.31;;;9.38;67.39
49825;BME280;35714;55.708;37.478;2022-11-10T15:50:34;99680.72;;;9.39;67.46
49825;BME280;35714;55.708;37.478;2022-11-10T15:53:27;99691.94;;;9.43;67.43
49825;BME280;35714;55.708;37.478;2022-11-10T15:56:15;99688.63;;;9.41;67.45
49825;BME280;35714;55.708;37.478;2022-11-10T15:59:00;99683.28;;;9.34;67.48
49825;BME280;35714;55.708;37.478;2022-11-10T16:01:45;99673.25;;;9.34;67.29
49825;BME280;35714;55.708;37.478;2022-11-10T16:04:29;99669.53;;;9.35;67.30
49825;BME280;35714;55.708;37.478;2022-11-10T16:07:13;99680.56;;;9.34;67.49
49825;BME280;35714;55.708;37.478;2022-11-10T16:09:58;99670.41;;;9.29;67.45
49825;BME280;35714;55.708;37.478;2022-11-10T16:12:42;99669.19;;;9.25;67.56
49825;BME280;35714;55.708;37.478;2022-11-10T16:15:26;99669.63;;;9.22;67.59
49825;BME280;35714;55.708;37.478;2022-11-10T16:18:19;99671.44;;;9.28;67.53
49825;BME280;35714;55.708;37.478;2022-11-10T16:21:03;99659.16;;;9.26;67.54